sensor_id;sensor_type;location;lat;lon;timestamp;P1;durP1;ratioP1;P2;durP2;ratioP2
73779;SDS011;62093;37.614;15.072;2023-04-24T00:00:15;4.80;;;2.10;;
73779;SDS011;62093;37.614;15.072;2023-04-24T00:02:43;4.20;;;2.00;;
73779;SDS011;62093;37.614;15.072;2023-04-24T00:05:16;4.35;;;2.20;;
73779;SDS011;62093;37.614;15.072;2023-04-24T00:07:43;4.70;;;2.37;;
73779;SDS011;62093;37.614;15.072;2023-04-24T00:10:10;4.35;;;2.00;;
73779;SDS011;62093;37.614;15.072;2023-04-24T00:12:36;4.40;;;2.03;;
73779;SDS011;62093;37.614;15.072;2023-04-24T00:15:02;4.72;;;2.03;;
73779;SDS011;62093;37.614;15.072;2023-04-24T00:17:28;4.63;;;2.30;;
73779;SDS011;62093;37.614;15.072;2023-04-24T00:19:54;4.10;;;1.90;;
73779;SDS011;62093;37.614;15.072;2023-04-24T00:22:24;4.53;;;2.30;;
73779;SDS011;62093;37.614;15.072;2023-04-24T00:24:50;4.82;;;2.25;;
73779;SDS011;62093;37.614;15.072;2023-04-24T00:27:16;4.40;;;2.13;;
73779;SDS011;62093;37.614;15.072;2023-04-24T00:29:42;4.77;;;2.20;;
73779;SDS011;62093;37.614;15.072;2023-04-24T00:32:08;4.18;;;1.90;;
73779;SDS011;62093;37.614;15.072;2023-04-24T00:34:34;4.13;;;1.98;;
73779;SDS011;62093;37.614;15.072;2023-04-24T00:37:00;4.77;;;2.10;;
73779;SDS011;62093;37.614;15.072;2023-04-24T00:39:25;5.38;;;2.35;;
73779;SDS011;62093;37.614;15.072;2023-04-24T00:41:51;4.40;;;2.10;;
73779;SDS011;62093;37.614;15.072;2023-04-24T00:44:18;4.60;;;2.03;;
73779;SDS011;62093;37.614;15.072;2023-04-24T00:46:44;3.97;;;1.88;;
73779;SDS011;62093;37.614;15.072;2023-04-24T00:49:11;5.07;;;2.20;;
73779;SDS011;62093;37.614;15.072;2023-04-24T00:51:38;4.57;;;2.20;;
73779;SDS011;62093;37.614;15.072;2023-04-24T00:54:04;4.20;;;2.07;;
73779;SDS011;62093;37.614;15.072;2023-04-24T00:56:30;4.60;;;2.27;;
73779;SDS011;62093;37.614;15.072;2023-04-24T00:58:56;4.40;;;2.22;;
73779;SDS011;62093;37.614;15.072;2023-04-24T01:01:23;4.93;;;2.20;;
73779;SDS011;62093;37.614;15.072;2023-04-24T01:03:50;4.43;;;2.00;;
73779;SDS011;62093;37.614;15.072;2023-04-24T01:06:18;4.32;;;2.13;;
73779;SDS011;62093;37.614;15.072;2023-04-24T01:08:45;4.30;;;2.10;;
73779;SDS011;62093;37.614;15.072;2023-04-24T01:11:13;4.10;;;2.00;;
73779;SDS011;62093;37.614;15.072;2023-04-24T01:13:39;4.18;;;2.08;;
73779;SDS011;62093;37.614;15.072;2023-04-24T01:16:05;4.20;;;2.17;;
73779;SDS011;62093;37.614;15.072;2023-04-24T01:18:33;4.00;;;2.00;;
73779;SDS011;62093;37.614;15.072;2023-04-24T01:20:59;4.47;;;1.97;;
73779;SDS011;62093;37.614;15.072;2023-04-24T01:23:30;4.20;;;2.10;;
73779;SDS011;62093;37.614;15.072;2023-04-24T01:25:56;4.72;;;1.90;;
73779;SDS011;62093;37.614;15.072;2023-04-24T01:28:24;4.00;;;1.85;;
73779;SDS011;62093;37.614;15.072;2023-04-24T01:30:50;4.33;;;2.10;;
73779;SDS011;62093;37.614;15.072;2023-04-24T01:33:16;4.28;;;2.03;;
73779;SDS011;62093;37.614;15.072;2023-04-24T01:35:42;4.20;;;2.10;;
73779;SDS011;62093;37.614;15.072;2023-04-24T01:38:08;5.22;;;2.33;;
73779;SDS011;62093;37.614;15.072;2023-04-24T01:40:35;4.30;;;2.07;;
73779;SDS011;62093;37.614;15.072;2023-04-24T01:43:00;5.13;;;2.00;;
73779;SDS011;62093;37.614;15.072;2023-04-24T01:45:29;4.60;;;1.98;;
73779;SDS011;62093;37.614;15.072;2023-04-24T01:47:55;4.20;;;1.92;;
73779;SDS011;62093;37.614;15.072;2023-04-24T01:50:23;4.13;;;1.73;;
73779;SDS011;62093;37.614;15.072;2023-04-24T01:52:49;4.28;;;2.05;;
73779;SDS011;62093;37.614;15.072;2023-04-24T01:55:15;4.68;;;2.30;;
73779;SDS011;62093;37.614;15.072;2023-04-24T01:57:41;4.22;;;2.25;;
73779;SDS011;62093;37.614;15.072;2023-04-24T02:00:07;4.53;;;2.23;;
73779;SDS011;62093;37.614;15.072;2023-04-24T02:02:39;4.43;;;2.22;;
73779;SDS011;62093;37.614;15.072;2023-04-24T02:05:06;4.28;;;2.20;;
73779;SDS011;62093;37.614;15.072;2023-04-24T02:07:35;4.40;;;2.30;;
73779;SDS011;62093;37.614;15.072;2023-04-24T02:10:01;4.07;;;2.17;;
73779;SDS011;62093;37.614;15.072;2023-04-24T02:12:27;4.20;;;2.00;;
73779;SDS011;62093;37.614;15.072;2023-04-24T02:14:53;4.20;;;1.77;;
73779;SDS011;62093;37.614;15.072;2023-04-24T02:17:19;4.70;;;1.83;;
73779;SDS011;62093;37.614;15.072;2023-04-24T02:19:45;4.10;;;2.10;;
73779;SDS011;62093;37.614;15.072;2023-04-24T02:22:11;4.18;;;2.05;;
73779;SDS011;62093;37.614;15.072;2023-04-24T02:24:38;4.70;;;2.10;;
73779;SDS011;62093;37.614;15.072;2023-04-24T02:27:05;4.20;;;2.00;;
73779;SDS011;62093;37.614;15.072;2023-04-24T02:29:31;4.10;;;1.90;;
73779;SDS011;62093;37.614;15.072;2023-04-24T02:31:57;4.10;;;2.00;;
73779;SDS011;62093;37.614;15.072;2023-04-24T02:34:23;4.15;;;1.92;;
73779;SDS011;62093;37.614;15.072;2023-04-24T02:36:49;4.25;;;2.22;;
73779;SDS011;62093;37.614;15.072;2023-04-24T02:39:15;4.45;;;2.20;;
73779;SDS011;62093;37.614;15.072;2023-04-24T02:41:42;4.70;;;2.17;;
73779;SDS011;62093;37.614;15.072;2023-04-24T02:44:09;4.50;;;2.20;;
73779;SDS011;62093;37.614;15.072;2023-04-24T02:46:35;5.55;;;2.20;;
73779;SDS011;62093;37.614;15.072;2023-04-24T02:49:01;4.93;;;1.80;;
73779;SDS011;62093;37.614;15.072;2023-04-24T02:51:28;4.15;;;1.70;;
73779;SDS011;62093;37.614;15.072;2023-04-24T02:53:54;4.10;;;1.70;;
73779;SDS011;62093;37.614;15.072;2023-04-24T02:56:20;4.10;;;2.08;;
73779;SDS011;62093;37.614;15.072;2023-04-24T02:58:46;4.03;;;1.88;;
73779;SDS011;62093;37.614;15.072;2023-04-24T03:01:12;4.33;;;1.97;;
73779;SDS011;62093;37.614;15.072;2023-04-24T03:03:38;4.45;;;2.10;;
73779;SDS011;62093;37.614;15.072;2023-04-24T03:06:05;4.10;;;2.10;;
73779;SDS011;62093;37.614;15.072;2023-04-24T03:08:33;4.38;;;2.10;;
73779;SDS011;62093;37.614;15.072;2023-04-24T03:10:59;4.63;;;1.80;;
73779;SDS011;62093;37.614;15.072;2023-04-24T03:13:25;4.53;;;1.83;;
73779;SDS011;62093;37.614;15.072;2023-04-24T03:15:51;4.68;;;2.40;;
73779;SDS011;62093;37.614;15.072;2023-04-24T03:18:18;4.18;;;2.00;;
73779;SDS011;62093;37.614;15.072;2023-04-24T03:20:46;3.67;;;1.60;;
73779;SDS011;62093;37.614;15.072;2023-04-24T03:23:13;4.28;;;1.85;;
73779;SDS011;62093;37.614;15.072;2023-04-24T03:25:39;4.43;;;1.80;;
73779;SDS011;62093;37.614;15.072;2023-04-24T03:28:06;4.40;;;2.00;;
73779;SDS011;62093;37.614;15.072;2023-04-24T03:30:38;4.30;;;2.00;;
73779;SDS011;62093;37.614;15.072;2023-04-24T03:33:05;4.60;;;2.10;;
73779;SDS011;62093;37.614;15.072;2023-04-24T03:35:35;3.90;;;1.80;;
73779;SDS011;62093;37.614;15.072;2023-04-24T03:38:04;4.32;;;2.00;;
73779;SDS011;62093;37.614;15.072;2023-04-24T03:40:48;4.97;;;1.88;;
73779;SDS011;62093;37.614;15.072;2023-04-24T03:43:34;4.28;;;1.90;;
73779;SDS011;62093;37.614;15.072;2023-04-24T03:46:01;4.33;;;1.97;;
73779;SDS011;62093;37.614;15.072;2023-04-24T03:48:29;3.88;;;1.83;;
73779;SDS011;62093;37.614;15.072;2023-04-24T03:50:55;4.25;;;2.00;;
73779;SDS011;62093;37.614;15.072;2023-04-24T03:53:22;4.57;;;1.90;;
73779;SDS011;62093;37.614;15.072;2023-04-24T03:55:49;4.68;;;1.90;;
73779;SDS011;62093;37.614;15.072;2023-04-24T03:58:15;4.47;;;1.90;;
73779;SDS011;62093;37.614;15.072;2023-04-24T04:00:42;4.55;;;1.58;;
73779;SDS011;62093;37.614;15.072;2023-04-24T04:03:41;4.22;;;1.80;;
73779;SDS011;62093;37.614;15.072;2023-04-24T04:06:07;3.85;;;1.70;;
73779;SDS011;62093;37.614;15.072;2023-04-24T04:08:36;4.13;;;1.90;;
73779;SDS011;62093;37.614;15.072;2023-04-24T04:11:02;4.40;;;2.00;;
73779;SDS011;62093;37.614;15.072;2023-04-24T04:13:28;4.55;;;1.90;;
73779;SDS011;62093;37.614;15.072;2023-04-24T04:15:55;4.10;;;1.83;;
73779;SDS011;62093;37.614;15.072;2023-04-24T04:18:21;4.00;;;1.90;;
73779;SDS011;62093;37.614;15.072;2023-04-24T04:20:47;4.73;;;1.80;;
73779;SDS011;62093;37.614;15.072;2023-04-24T04:23:17;4.80;;;2.05;;
73779;SDS011;62093;37.614;15.072;2023-04-24T04:26:01;3.80;;;1.60;;
73779;SDS011;62093;37.614;15.072;2023-04-24T04:28:39;3.95;;;1.80;;
73779;SDS011;62093;37.614;15.072;2023-04-24T04:31:05;3.80;;;1.77;;
73779;SDS011;62093;37.614;15.072;2023-04-24T04:33:33;4.38;;;1.95;;
73779;SDS011;62093;37.614;15.072;2023-04-24T04:36:01;3.63;;;1.42;;
73779;SDS011;62093;37.614;15.072;2023-04-24T04:38:29;4.10;;;1.70;;
73779;SDS011;62093;37.614;15.072;2023-04-24T04:41:03;4.22;;;1.80;;
73779;SDS011;62093;37.614;15.072;2023-04-24T04:43:31;4.43;;;2.10;;
73779;SDS011;62093;37.614;15.072;2023-04-24T04:45:58;4.10;;;1.92;;
73779;SDS011;62093;37.614;15.072;2023-04-24T04:48:52;4.53;;;1.80;;
73779;SDS011;62093;37.614;15.072;2023-04-24T04:51:18;4.20;;;1.73;;
73779;SDS011;62093;37.614;15.072;2023-04-24T04:53:45;4.47;;;1.70;;
73779;SDS011;62093;37.614;15.072;2023-04-24T04:56:11;4.23;;;1.87;;
73779;SDS011;62093;37.614;15.072;2023-04-24T04:58:42;4.22;;;2.00;;
73779;SDS011;62093;37.614;15.072;2023-04-24T05:01:11;4.00;;;1.70;;
73779;SDS011;62093;37.614;15.072;2023-04-24T05:03:41;3.95;;;1.80;;
73779;SDS011;62093;37.614;15.072;2023-04-24T05:06:09;4.90;;;2.20;;
73779;SDS011;62093;37.614;15.072;2023-04-24T05:08:37;4.03;;;1.80;;
73779;SDS011;62093;37.614;15.072;2023-04-24T05:11:06;3.80;;;1.58;;
73779;SDS011;62093;37.614;15.072;2023-04-24T05:13:32;4.07;;;1.83;;
73779;SDS011;62093;37.614;15.072;2023-04-24T05:16:00;3.97;;;1.80;;
73779;SDS011;62093;37.614;15.072;2023-04-24T05:18:27;3.88;;;1.80;;
73779;SDS011;62093;37.614;15.072;2023-04-24T05:20:53;3.87;;;1.77;;
73779;SDS011;62093;37.614;15.072;2023-04-24T05:23:19;4.07;;;1.73;;
73779;SDS011;62093;37.614;15.072;2023-04-24T05:25:49;4.32;;;1.90;;
73779;SDS011;62093;37.614;15.072;2023-04-24T05:28:15;3.90;;;1.80;;
73779;SDS011;62093;37.614;15.072;2023-04-24T05:30:44;4.82;;;1.65;;
73779;SDS011;62093;37.614;15.072;2023-04-24T05:33:15;4.00;;;1.80;;
73779;SDS011;62093;37.614;15.072;2023-04-24T05:35:40;4.65;;;2.08;;
73779;SDS011;62093;37.614;15.072;2023-04-24T05:38:13;3.90;;;1.70;;
73779;SDS011;62093;37.614;15.072;2023-04-24T05:40:39;4.57;;;1.70;;
73779;SDS011;62093;37.614;15.072;2023-04-24T05:43:05;4.25;;;1.70;;
73779;SDS011;62093;37.614;15.072;2023-04-24T05:45:31;4.25;;;1.77;;
73779;SDS011;62093;37.614;15.072;2023-04-24T05:47:57;3.88;;;1.50;;
73779;SDS011;62093;37.614;15.072;2023-04-24T05:50:23;4.20;;;1.73;;
73779;SDS011;62093;37.614;15.072;2023-04-24T05:52:49;4.15;;;1.80;;
73779;SDS011;62093;37.614;15.072;2023-04-24T05:55:24;4.30;;;2.00;;
73779;SDS011;62093;37.614;15.072;2023-04-24T05:57:51;3.75;;;1.58;;
73779;SDS011;62093;37.614;15.072;2023-04-24T06:00:18;3.90;;;1.63;;
73779;SDS011;62093;37.614;15.072;2023-04-24T06:02:51;3.78;;;1.52;;
73779;SDS011;62093;37.614;15.072;2023-04-24T06:05:19;3.70;;;1.70;;
73779;SDS011;62093;37.614;15.072;2023-04-24T06:07:45;4.47;;;1.90;;
73779;SDS011;62093;37.614;15.072;2023-04-24T06:10:11;3.95;;;1.80;;
73779;SDS011;62093;37.614;15.072;2023-04-24T06:12:41;4.23;;;1.90;;
73779;SDS011;62093;37.614;15.072;2023-04-24T06:15:13;4.47;;;1.95;;
73779;SDS011;62093;37.614;15.072;2023-04-24T06:17:57;4.28;;;2.00;;
73779;SDS011;62093;37.614;15.072;2023-04-24T06:20:24;3.90;;;1.45;;
73779;SDS011;62093;37.614;15.072;2023-04-24T06:22:50;4.35;;;1.88;;
73779;SDS011;62093;37.614;15.072;2023-04-24T06:25:17;3.90;;;2.00;;
73779;SDS011;62093;37.614;15.072;2023-04-24T06:27:44;4.28;;;1.60;;
73779;SDS011;62093;37.614;15.072;2023-04-24T06:30:10;4.85;;;1.80;;
73779;SDS011;62093;37.614;15.072;2023-04-24T06:32:37;4.10;;;1.60;;
73779;SDS011;62093;37.614;15.072;2023-04-24T06:35:03;4.10;;;1.53;;
73779;SDS011;62093;37.614;15.072;2023-04-24T06:37:30;4.28;;;1.67;;
73779;SDS011;62093;37.614;15.072;2023-04-24T06:39:55;4.13;;;1.83;;
73779;SDS011;62093;37.614;15.072;2023-04-24T06:42:21;4.37;;;1.70;;
73779;SDS011;62093;37.614;15.072;2023-04-24T06:44:49;3.90;;;1.60;;
73779;SDS011;62093;37.614;15.072;2023-04-24T06:47:15;4.00;;;1.80;;
73779;SDS011;62093;37.614;15.072;2023-04-24T06:49:41;4.07;;;1.92;;
73779;SDS011;62093;37.614;15.072;2023-04-24T06:52:07;4.10;;;1.70;;
73779;SDS011;62093;37.614;15.072;2023-04-24T06:54:33;4.20;;;1.83;;
73779;SDS011;62093;37.614;15.072;2023-04-24T06:56:59;4.40;;;1.70;;
73779;SDS011;62093;37.614;15.072;2023-04-24T06:59:26;3.92;;;1.70;;
73779;SDS011;62093;37.614;15.072;2023-04-24T07:01:53;4.15;;;1.83;;
73779;SDS011;62093;37.614;15.072;2023-04-24T07:04:19;4.40;;;1.60;;
73779;SDS011;62093;37.614;15.072;2023-04-24T07:06:45;4.15;;;1.60;;
73779;SDS011;62093;37.614;15.072;2023-04-24T07:09:14;3.90;;;1.70;;
73779;SDS011;62093;37.614;15.072;2023-04-24T07:11:41;4.00;;;1.80;;
73779;SDS011;62093;37.614;15.072;2023-04-24T07:14:07;3.78;;;1.48;;
73779;SDS011;62093;37.614;15.072;2023-04-24T07:16:34;4.18;;;1.80;;
73779;SDS011;62093;37.614;15.072;2023-04-24T07:19:00;3.83;;;1.50;;
73779;SDS011;62093;37.614;15.072;2023-04-24T07:21:25;4.23;;;1.90;;
73779;SDS011;62093;37.614;15.072;2023-04-24T07:23:52;3.95;;;2.00;;
73779;SDS011;62093;37.614;15.072;2023-04-24T07:26:18;4.00;;;1.65;;
73779;SDS011;62093;37.614;15.072;2023-04-24T07:28:45;3.90;;;1.50;;
73779;SDS011;62093;37.614;15.072;2023-04-24T07:31:10;4.13;;;1.60;;
73779;SDS011;62093;37.614;15.072;2023-04-24T07:33:37;4.13;;;1.85;;
73779;SDS011;62093;37.614;15.072;2023-04-24T07:36:03;3.90;;;1.60;;
73779;SDS011;62093;37.614;15.072;2023-04-24T07:38:29;4.00;;;1.60;;
73779;SDS011;62093;37.614;15.072;2023-04-24T07:40:56;4.20;;;1.80;;
73779;SDS011;62093;37.614;15.072;2023-04-24T07:43:22;4.10;;;1.60;;
73779;SDS011;62093;37.614;15.072;2023-04-24T07:45:52;3.85;;;1.63;;
73779;SDS011;62093;37.614;15.072;2023-04-24T07:48:19;4.05;;;1.65;;
73779;SDS011;62093;37.614;15.072;2023-04-24T07:50:46;3.80;;;1.40;;
73779;SDS011;62093;37.614;15.072;2023-04-24T07:53:12;4.30;;;1.97;;
73779;SDS011;62093;37.614;15.072;2023-04-24T07:55:38;4.13;;;1.60;;
73779;SDS011;62093;37.614;15.072;2023-04-24T07:58:04;3.87;;;1.60;;
73779;SDS011;62093;37.614;15.072;2023-04-24T08:00:30;4.07;;;1.70;;
73779;SDS011;62093;37.614;15.072;2023-04-24T08:02:56;4.63;;;1.90;;
73779;SDS011;62093;37.614;15.072;2023-04-24T08:05:22;4.18;;;1.52;;
73779;SDS011;62093;37.614;15.072;2023-04-24T08:07:48;3.90;;;1.50;;
73779;SDS011;62093;37.614;15.072;2023-04-24T08:10:15;4.30;;;1.63;;
73779;SDS011;62093;37.614;15.072;2023-04-24T08:12:41;3.92;;;1.88;;
73779;SDS011;62093;37.614;15.072;2023-04-24T08:15:07;3.85;;;1.60;;
73779;SDS011;62093;37.614;15.072;2023-04-24T08:17:34;3.83;;;1.40;;
73779;SDS011;62093;37.614;15.072;2023-04-24T08:20:01;4.35;;;1.80;;
73779;SDS011;62093;37.614;15.072;2023-04-24T08:22:27;4.00;;;1.50;;
73779;SDS011;62093;37.614;15.072;2023-04-24T08:24:54;4.22;;;1.67;;
73779;SDS011;62093;37.614;15.072;2023-04-24T08:27:21;3.90;;;1.83;;
73779;SDS011;62093;37.614;15.072;2023-04-24T08:29:47;4.07;;;1.53;;
73779;SDS011;62093;37.614;15.072;2023-04-24T08:32:13;4.68;;;1.80;;
73779;SDS011;62093;37.614;15.072;2023-04-24T08:34:39;4.95;;;2.00;;
73779;SDS011;62093;37.614;15.072;2023-04-24T08:37:05;4.10;;;1.40;;
73779;SDS011;62093;37.614;15.072;2023-04-24T08:39:31;3.90;;;1.55;;
73779;SDS011;62093;37.614;15.072;2023-04-24T08:41:57;4.00;;;1.65;;
73779;SDS011;62093;37.614;15.072;2023-04-24T08:44:33;3.88;;;1.55;;
73779;SDS011;62093;37.614;15.072;2023-04-24T08:47:03;4.78;;;1.75;;
73779;SDS011;62093;37.614;15.072;2023-04-24T08:49:30;4.03;;;1.60;;
73779;SDS011;62093;37.614;15.072;2023-04-24T08:51:56;3.90;;;1.70;;
73779;SDS011;62093;37.614;15.072;2023-04-24T08:54:22;3.60;;;1.55;;
73779;SDS011;62093;37.614;15.072;2023-04-24T08:56:50;4.28;;;1.60;;
73779;SDS011;62093;37.614;15.072;2023-04-24T08:59:18;4.03;;;1.70;;
73779;SDS011;62093;37.614;15.072;2023-04-24T09:01:46;4.37;;;2.00;;
73779;SDS011;62093;37.614;15.072;2023-04-24T09:04:14;4.65;;;1.63;;
73779;SDS011;62093;37.614;15.072;2023-04-24T09:06:43;3.85;;;1.60;;
73779;SDS011;62093;37.614;15.072;2023-04-24T09:09:09;5.45;;;1.63;;
73779;SDS011;62093;37.614;15.072;2023-04-24T09:11:37;4.30;;;1.80;;
73779;SDS011;62093;37.614;15.072;2023-04-24T09:14:02;3.93;;;1.80;;
73779;SDS011;62093;37.614;15.072;2023-04-24T09:16:29;3.70;;;1.50;;
73779;SDS011;62093;37.614;15.072;2023-04-24T09:18:55;4.40;;;1.80;;
73779;SDS011;62093;37.614;15.072;2023-04-24T09:21:21;6.18;;;2.10;;
73779;SDS011;62093;37.614;15.072;2023-04-24T09:23:57;3.97;;;1.50;;
73779;SDS011;62093;37.614;15.072;2023-04-24T09:26:25;4.40;;;1.83;;
73779;SDS011;62093;37.614;15.072;2023-04-24T09:28:51;4.13;;;1.70;;
73779;SDS011;62093;37.614;15.072;2023-04-24T09:31:18;3.92;;;1.80;;
73779;SDS011;62093;37.614;15.072;2023-04-24T09:34:03;4.57;;;1.60;;
73779;SDS011;62093;37.614;15.072;2023-04-24T09:39:02;3.67;;;1.63;;
73779;SDS011;62093;37.614;15.072;2023-04-24T09:41:33;3.92;;;1.70;;
73779;SDS011;62093;37.614;15.072;2023-04-24T09:44:13;4.20;;;1.63;;
73779;SDS011;62093;37.614;15.072;2023-04-24T09:46:44;4.75;;;2.08;;
73779;SDS011;62093;37.614;15.072;2023-04-24T09:49:14;3.88;;;1.50;;
73779;SDS011;62093;37.614;15.072;2023-04-24T09:51:42;4.57;;;1.80;;
73779;SDS011;62093;37.614;15.072;2023-04-24T09:54:16;3.97;;;1.40;;
73779;SDS011;62093;37.614;15.072;2023-04-24T09:56:47;4.65;;;1.70;;
73779;SDS011;62093;37.614;15.072;2023-04-24T09:59:15;4.88;;;1.60;;
73779;SDS011;62093;37.614;15.072;2023-04-24T10:01:44;4.20;;;1.75;;
73779;SDS011;62093;37.614;15.072;2023-04-24T10:06:43;4.05;;;1.80;;
73779;SDS011;62093;37.614;15.072;2023-04-24T10:09:10;4.43;;;1.80;;
73779;SDS011;62093;37.614;15.072;2023-04-24T10:11:46;4.50;;;2.03;;
73779;SDS011;62093;37.614;15.072;2023-04-24T10:14:14;4.18;;;1.50;;
73779;SDS011;62093;37.614;15.072;2023-04-24T10:16:43;4.20;;;1.83;;
73779;SDS011;62093;37.614;15.072;2023-04-24T10:19:12;4.18;;;1.95;;
73779;SDS011;62093;37.614;15.072;2023-04-24T10:21:39;4.38;;;1.52;;
73779;SDS011;62093;37.614;15.072;2023-04-24T10:24:13;3.90;;;1.70;;
73779;SDS011;62093;37.614;15.072;2023-04-24T10:26:41;4.82;;;1.85;;
73779;SDS011;62093;37.614;15.072;2023-04-24T10:29:07;4.53;;;1.70;;
73779;SDS011;62093;37.614;15.072;2023-04-24T10:31:37;4.15;;;1.50;;
73779;SDS011;62093;37.614;15.072;2023-04-24T10:34:06;4.00;;;1.60;;
73779;SDS011;62093;37.614;15.072;2023-04-24T10:36:34;5.15;;;1.58;;
73779;SDS011;62093;37.614;15.072;2023-04-24T10:39:02;4.53;;;1.95;;
73779;SDS011;62093;37.614;15.072;2023-04-24T10:41:31;4.60;;;1.70;;
73779;SDS011;62093;37.614;15.072;2023-04-24T10:47:01;4.00;;;1.65;;
73779;SDS011;62093;37.614;15.072;2023-04-24T10:49:28;5.25;;;1.65;;
73779;SDS011;62093;37.614;15.072;2023-04-24T10:51:59;4.00;;;1.60;;
73779;SDS011;62093;37.614;15.072;2023-04-24T10:54:33;4.15;;;1.80;;
73779;SDS011;62093;37.614;15.072;2023-04-24T10:59:49;4.63;;;1.75;;
73779;SDS011;62093;37.614;15.072;2023-04-24T11:02:16;4.55;;;1.65;;
73779;SDS011;62093;37.614;15.072;2023-04-24T11:04:44;4.47;;;1.80;;
73779;SDS011;62093;37.614;15.072;2023-04-24T11:07:10;4.32;;;1.73;;
73779;SDS011;62093;37.614;15.072;2023-04-24T11:09:37;4.10;;;1.35;;
73779;SDS011;62093;37.614;15.072;2023-04-24T11:17:37;3.80;;;1.53;;
73779;SDS011;62093;37.614;15.072;2023-04-24T11:20:06;3.53;;;1.40;;
73779;SDS011;62093;37.614;15.072;2023-04-24T11:22:37;3.97;;;1.52;;
73779;SDS011;62093;37.614;15.072;2023-04-24T11:25:08;4.38;;;1.88;;
73779;SDS011;62093;37.614;15.072;2023-04-24T11:27:41;4.18;;;1.60;;
73779;SDS011;62093;37.614;15.072;2023-04-24T11:30:09;4.10;;;1.60;;
73779;SDS011;62093;37.614;15.072;2023-04-24T11:32:37;3.85;;;1.42;;
73779;SDS011;62093;37.614;15.072;2023-04-24T11:35:12;4.43;;;1.55;;
73779;SDS011;62093;37.614;15.072;2023-04-24T11:37:44;4.03;;;1.85;;
73779;SDS011;62093;37.614;15.072;2023-04-24T11:40:12;4.68;;;1.50;;
73779;SDS011;62093;37.614;15.072;2023-04-24T11:42:44;3.93;;;1.80;;
73779;SDS011;62093;37.614;15.072;2023-04-24T11:45:12;4.55;;;1.83;;
73779;SDS011;62093;37.614;15.072;2023-04-24T11:47:40;3.75;;;1.23;;
73779;SDS011;62093;37.614;15.072;2023-04-24T11:50:08;4.22;;;1.58;;
73779;SDS011;62093;37.614;15.072;2023-04-24T11:52:39;3.95;;;1.70;;
73779;SDS011;62093;37.614;15.072;2023-04-24T11:55:22;4.63;;;1.60;;
73779;SDS011;62093;37.614;15.072;2023-04-24T11:57:58;4.22;;;1.40;;
73779;SDS011;62093;37.614;15.072;2023-04-24T12:00:28;3.88;;;1.55;;
73779;SDS011;62093;37.614;15.072;2023-04-24T12:03:08;4.10;;;1.70;;
73779;SDS011;62093;37.614;15.072;2023-04-24T12:05:36;4.00;;;1.65;;
73779;SDS011;62093;37.614;15.072;2023-04-24T12:08:03;4.97;;;1.40;;
73779;SDS011;62093;37.614;15.072;2023-04-24T12:10:31;4.18;;;1.40;;
73779;SDS011;62093;37.614;15.072;2023-04-24T12:12:58;3.85;;;1.40;;
73779;SDS011;62093;37.614;15.072;2023-04-24T12:15:26;4.05;;;1.40;;
73779;SDS011;62093;37.614;15.072;2023-04-24T12:17:52;4.00;;;1.40;;
73779;SDS011;62093;37.614;15.072;2023-04-24T12:20:29;3.97;;;1.53;;
73779;SDS011;62093;37.614;15.072;2023-04-24T12:22:57;4.95;;;1.80;;
73779;SDS011;62093;37.614;15.072;2023-04-24T12:25:26;4.13;;;1.50;;
73779;SDS011;62093;37.614;15.072;2023-04-24T12:28:11;3.97;;;1.55;;
73779;SDS011;62093;37.614;15.072;2023-04-24T12:30:39;3.95;;;1.50;;
73779;SDS011;62093;37.614;15.072;2023-04-24T12:33:05;3.40;;;1.37;;
73779;SDS011;62093;37.614;15.072;2023-04-24T12:35:32;4.10;;;1.52;;
73779;SDS011;62093;37.614;15.072;2023-04-24T12:38:06;4.10;;;1.50;;
73779;SDS011;62093;37.614;15.072;2023-04-24T12:40:33;3.95;;;1.33;;
73779;SDS011;62093;37.614;15.072;2023-04-24T12:42:59;4.63;;;1.75;;
73779;SDS011;62093;37.614;15.072;2023-04-24T12:45:25;5.10;;;1.53;;
73779;SDS011;62093;37.614;15.072;2023-04-24T12:47:53;3.78;;;1.35;;
73779;SDS011;62093;37.614;15.072;2023-04-24T12:50:19;4.20;;;1.40;;
73779;SDS011;62093;37.614;15.072;2023-04-24T12:52:45;3.40;;;1.40;;
73779;SDS011;62093;37.614;15.072;2023-04-24T12:55:11;3.55;;;1.33;;
73779;SDS011;62093;37.614;15.072;2023-04-24T12:57:38;4.55;;;1.50;;
73779;SDS011;62093;37.614;15.072;2023-04-24T13:00:05;4.20;;;1.58;;
73779;SDS011;62093;37.614;15.072;2023-04-24T13:02:32;4.78;;;1.58;;
73779;SDS011;62093;37.614;15.072;2023-04-24T13:04:59;4.10;;;1.77;;
73779;SDS011;62093;37.614;15.072;2023-04-24T13:07:25;4.45;;;1.60;;
73779;SDS011;62093;37.614;15.072;2023-04-24T13:09:52;3.75;;;1.33;;
73779;SDS011;62093;37.614;15.072;2023-04-24T13:12:19;3.60;;;1.30;;
73779;SDS011;62093;37.614;15.072;2023-04-24T13:14:45;3.60;;;1.42;;
73779;SDS011;62093;37.614;15.072;2023-04-24T13:17:12;4.33;;;1.80;;
73779;SDS011;62093;37.614;15.072;2023-04-24T13:19:39;3.90;;;1.30;;
73779;SDS011;62093;37.614;15.072;2023-04-24T13:22:08;4.22;;;1.85;;
73779;SDS011;62093;37.614;15.072;2023-04-24T13:24:35;4.05;;;1.30;;
73779;SDS011;62093;37.614;15.072;2023-04-24T13:27:02;4.10;;;1.65;;
73779;SDS011;62093;37.614;15.072;2023-04-24T13:29:29;3.80;;;1.30;;
73779;SDS011;62093;37.614;15.072;2023-04-24T13:31:55;3.90;;;1.52;;
73779;SDS011;62093;37.614;15.072;2023-04-24T13:34:25;4.88;;;1.63;;
73779;SDS011;62093;37.614;15.072;2023-04-24T13:36:52;4.18;;;1.30;;
73779;SDS011;62093;37.614;15.072;2023-04-24T13:39:20;3.92;;;1.55;;
73779;SDS011;62093;37.614;15.072;2023-04-24T13:41:46;4.20;;;1.40;;
73779;SDS011;62093;37.614;15.072;2023-04-24T13:44:14;3.75;;;1.33;;
73779;SDS011;62093;37.614;15.072;2023-04-24T13:46:40;4.30;;;1.65;;
73779;SDS011;62093;37.614;15.072;2023-04-24T13:49:09;4.30;;;1.30;;
73779;SDS011;62093;37.614;15.072;2023-04-24T13:51:35;4.28;;;1.58;;
73779;SDS011;62093;37.614;15.072;2023-04-24T13:54:01;4.27;;;1.60;;
73779;SDS011;62093;37.614;15.072;2023-04-24T13:56:27;3.83;;;1.33;;
73779;SDS011;62093;37.614;15.072;2023-04-24T13:58:53;4.43;;;1.75;;
73779;SDS011;62093;37.614;15.072;2023-04-24T14:01:22;3.70;;;1.40;;
73779;SDS011;62093;37.614;15.072;2023-04-24T14:03:54;4.20;;;1.67;;
73779;SDS011;62093;37.614;15.072;2023-04-24T14:06:21;3.50;;;1.30;;
73779;SDS011;62093;37.614;15.072;2023-04-24T14:08:48;4.35;;;1.40;;
73779;SDS011;62093;37.614;15.072;2023-04-24T14:11:15;3.97;;;1.73;;
73779;SDS011;62093;37.614;15.072;2023-04-24T14:13:42;4.75;;;1.52;;
73779;SDS011;62093;37.614;15.072;2023-04-24T14:16:09;3.90;;;1.42;;
73779;SDS011;62093;37.614;15.072;2023-04-24T14:18:36;4.20;;;1.57;;
73779;SDS011;62093;37.614;15.072;2023-04-24T14:21:05;3.55;;;1.45;;
73779;SDS011;62093;37.614;15.072;2023-04-24T14:23:32;3.90;;;1.63;;
73779;SDS011;62093;37.614;15.072;2023-04-24T14:25:58;3.55;;;1.50;;
73779;SDS011;62093;37.614;15.072;2023-04-24T14:28:25;3.85;;;1.35;;
73779;SDS011;62093;37.614;15.072;2023-04-24T14:30:52;4.23;;;1.50;;
73779;SDS011;62093;37.614;15.072;2023-04-24T14:33:18;4.00;;;1.33;;
73779;SDS011;62093;37.614;15.072;2023-04-24T14:35:44;3.72;;;1.48;;
73779;SDS011;62093;37.614;15.072;2023-04-24T14:38:11;3.95;;;1.58;;
73779;SDS011;62093;37.614;15.072;2023-04-24T14:40:37;4.10;;;1.60;;
73779;SDS011;62093;37.614;15.072;2023-04-24T14:43:03;3.72;;;1.30;;
73779;SDS011;62093;37.614;15.072;2023-04-24T14:45:29;4.43;;;1.60;;
73779;SDS011;62093;37.614;15.072;2023-04-24T14:47:55;3.80;;;1.20;;
73779;SDS011;62093;37.614;15.072;2023-04-24T14:50:22;4.20;;;1.50;;
73779;SDS011;62093;37.614;15.072;2023-04-24T14:52:47;4.03;;;1.40;;